Time;durP1;ratioP1;P1;durP2;ratioP2;P2;SDS_P1;SDS_P2;PMS_P1;PMS_P2;Temp;Humidity;BMP_temperature;BMP_pressure;BME280_temperature;BME280_humidity;BME280_pressure;Samples;Min_cycle;Max_cycle;Signal;HPM_P1;HPM_P2
2023/05/20 00:01:53;;;;;;;13.57;6.00;;;;;;;10.19;100.00;101180.63;4918695;29;20028;-78
2023/05/20 00:04:18;;;;;;;12.50;6.40;;;;;;;10.17;100.00;101176.47;4934403;29;20430;-78
2023/05/20 00:06:44;;;;;;;15.15;7.03;;;;;;;10.14;100.00;101174.25;4931597;29;20100;-77
2023/05/20 00:09:09;;;;;;;14.57;7.97;;;;;;;10.15;100.00;101173.16;4915330;29;20096;-77
2023/05/20 00:11:35;;;;;;;15.32;7.70;;;;;;;10.11;100.00;101172.03;4909681;29;20036;-77
2023/05/20 00:14:00;;;;;;;11.55;6.88;;;;;;;10.07;100.00;101169.78;4918495;29;20029;-78
2023/05/20 00:16:26;;;;;;;9.90;6.72;;;;;;;10.04;100.00;101162.03;4934563;29;20036;-77
2023/05/20 00:18:52;;;;;;;13.50;7.03;;;;;;;10.01;100.00;101165.34;4934329;29;20032;-77
2023/05/20 00:21:17;;;;;;;14.95;7.20;;;;;;;9.99;100.00;101159.22;4918632;29;20024;-78
2023/05/20 00:23:43;;;;;;;13.13;6.80;;;;;;;9.96;100.00;101157.00;4918682;29;20474;-78
2023/05/20 00:26:09;;;;;;;12.77;6.43;;;;;;;9.97;100.00;101155.91;4934397;29;20044;-77
2023/05/20 00:28:34;;;;;;;11.68;6.40;;;;;;;9.94;100.00;101163.94;4918432;29;20488;-77
2023/05/20 00:31:00;;;;;;;13.90;6.28;;;;;;;9.97;100.00;101158.69;4934164;29;20032;-78
2023/05/20 00:33:25;;;;;;;15.95;6.93;;;;;;;9.89;100.00;101159.22;4918460;29;20064;-77
2023/05/20 00:35:51;;;;;;;10.20;6.35;;;;;;;9.84;100.00;101154.50;4919723;29;20032;-78
2023/05/20 00:38:17;;;;;;;13.20;6.88;;;;;;;9.82;100.00;101161.41;4921634;29;20032;-77
2023/05/20 00:40:42;;;;;;;13.60;7.07;;;;;;;9.80;100.00;101164.44;4938126;29;20028;-78
2023/05/20 00:43:08;;;;;;;15.93;6.97;;;;;;;9.76;100.00;101160.56;4922970;29;20032;-77
2023/05/20 00:45:33;;;;;;;13.65;6.70;;;;;;;9.79;100.00;101167.50;4937712;29;20036;-77
2023/05/20 00:48:01;;;;;;;14.00;7.47;;;;;;;9.75;100.00;101158.06;4936224;29;20048;-77
2023/05/20 00:50:27;;;;;;;15.88;7.20;;;;;;;9.74;100.00;101156.41;4921916;29;20020;-77
2023/05/20 00:52:54;;;;;;;19.02;8.00;;;;;;;9.72;100.00;101153.91;4905102;29;20389;-77
2023/05/20 00:55:20;;;;;;;17.52;8.02;;;;;;;9.69;100.00;101157.19;4938017;29;20067;-78
2023/05/20 00:57:45;;;;;;;16.42;7.55;;;;;;;9.63;100.00;101155.53;4924594;29;20032;-78
2023/05/20 01:00:12;;;;;;;16.48;8.10;;;;;;;9.62;100.00;101149.16;4924603;29;20043;-78
2023/05/20 01:02:38;;;;;;;15.32;7.95;;;;;;;9.63;100.00;101148.03;4941688;29;20031;-77
2023/05/20 01:05:04;;;;;;;15.50;8.00;;;;;;;9.60;100.00;101144.97;4924719;29;20049;-77
2023/05/20 01:07:29;;;;;;;16.17;8.50;;;;;;;9.59;100.00;101137.78;4940586;29;20067;-77
2023/05/20 01:09:55;;;;;;;18.67;7.85;;;;;;;9.57;100.00;101129.72;4924876;29;20515;-77
2023/05/20 01:12:30;;;;;;;15.27;7.65;;;;;;;9.53;100.00;101128.59;4940163;29;20042;-78
2023/05/20 01:15:03;;;;;;;17.75;7.88;;;;;;;9.50;100.00;101123.63;4940267;29;20066;-77
2023/05/20 01:17:31;;;;;;;15.65;7.63;;;;;;;9.49;100.00;101116.38;4924066;29;20032;-77
2023/05/20 01:19:58;;;;;;;16.17;7.88;;;;;;;9.47;100.00;101114.97;4924389;29;20366;-77
2023/05/20 01:22:27;;;;;;;16.02;8.00;;;;;;;9.45;100.00;101117.22;4936973;29;20032;-78
2023/05/20 01:24:53;;;;;;;15.40;8.13;;;;;;;9.46;100.00;101111.38;4935160;29;20497;-77
2023/05/20 01:27:21;;;;;;;16.30;7.85;;;;;;;9.39;100.00;101110.81;4924214;29;20031;-78
2023/05/20 01:29:49;;;;;;;12.40;7.32;;;;;;;9.39;100.00;101106.09;4924446;29;20031;-77
2023/05/20 01:32:26;;;;;;;14.35;8.15;;;;;;;9.39;100.00;101106.09;4924180;29;20744;-77
2023/05/20 01:34:52;;;;;;;12.85;7.38;;;;;;;9.39;100.00;101110.81;4924182;29;20038;-78
2023/05/20 01:37:18;;;;;;;15.18;7.15;;;;;;;9.32;100.00;101104.69;4940271;29;20040;-77
2023/05/20 01:39:44;;;;;;;15.13;7.10;;;;;;;9.34;100.00;101091.38;4921569;29;20056;-77
2023/05/20 01:42:09;;;;;;;13.75;7.40;;;;;;;9.27;100.00;101099.09;4924084;29;20525;-77
2023/05/20 01:44:35;;;;;;;17.38;7.10;;;;;;;9.32;100.00;101099.13;4923775;29;20489;-77
2023/05/20 01:47:00;;;;;;;18.20;7.35;;;;;;;9.26;100.00;101106.59;4940974;29;20032;-77
2023/05/20 01:49:26;;;;;;;16.48;7.38;;;;;;;9.27;100.00;101107.44;4940431;29;20036;-77
2023/05/20 01:51:51;;;;;;;14.10;6.85;;;;;;;9.22;100.00;101101.84;4939280;29;20118;-77
2023/05/20 01:54:17;;;;;;;13.88;7.25;;;;;;;9.18;100.00;101101.56;4908401;29;20028;-77
2023/05/20 01:56:43;;;;;;;14.07;7.80;;;;;;;9.15;100.00;101091.84;4939786;29;20047;-77
2023/05/20 01:59:08;;;;;;;14.25;6.53;;;;;;;9.13;100.00;101096.81;4923451;29;20038;-77
2023/05/20 02:01:34;;;;;;;15.13;6.85;;;;;;;9.13;100.00;101096.81;4923731;29;20027;-77
2023/05/20 02:03:59;;;;;;;12.75;6.80;;;;;;;9.08;100.00;101098.75;4939546;29;20035;-77
2023/05/20 02:06:25;;;;;;;16.70;7.75;;;;;;;9.03;100.00;101107.06;4936149;29;20036;-77
2023/05/20 02:08:50;;;;;;;13.80;7.28;;;;;;;9.01;100.00;101100.94;4939432;29;20086;-77
2023/05/20 02:11:16;;;;;;;14.40;7.13;;;;;;;8.97;100.00;101103.44;4940623;29;20032;-77
2023/05/20 02:13:41;;;;;;;15.65;7.35;;;;;;;8.97;100.00;101095.13;4936752;29;20035;-77
2023/05/20 02:16:07;;;;;;;14.35;7.57;;;;;;;8.93;100.00;101094.78;4940313;29;20039;-77
2023/05/20 02:18:34;;;;;;;14.85;7.72;;;;;;;8.91;100.00;101098.94;4923440;29;20028;-77
2023/05/20 02:21:03;;;;;;;13.73;7.63;;;;;;;8.91;100.00;101090.63;4939213;29;20413;-77
2023/05/20 02:23:29;;;;;;;14.75;7.22;;;;;;;8.90;100.00;101086.19;4940246;29;20032;-77
2023/05/20 02:25:55;;;;;;;15.85;7.57;;;;;;;8.85;100.00;101092.53;4920380;29;20037;-77
2023/05/20 02:28:20;;;;;;;13.05;7.53;;;;;;;8.87;100.00;101098.66;4938641;29;20038;-77
2023/05/20 02:30:45;;;;;;;14.50;7.40;;;;;;;8.84;100.00;101098.34;4926166;29;20032;-77
2023/05/20 02:33:12;;;;;;;11.55;7.13;;;;;;;8.80;100.00;101088.91;4936105;29;20073;-77
2023/05/20 02:35:38;;;;;;;13.18;6.97;;;;;;;8.77;100.00;101089.44;4935670;29;20528;-77
2023/05/20 02:38:03;;;;;;;18.75;7.30;;;;;;;8.76;100.00;101094.16;4938794;28;20138;-77
2023/05/20 02:40:29;;;;;;;16.10;7.80;;;;;;;8.74;100.00;101088.03;4938842;29;20036;-77
2023/05/20 02:42:54;;;;;;;17.75;7.65;;;;;;;8.70;100.00;101084.97;4922762;29;20028;-77
2023/05/20 02:45:20;;;;;;;16.02;8.05;;;;;;;8.67;100.00;101076.38;4922942;29;20046;-77
2023/05/20 02:47:45;;;;;;;16.00;8.63;;;;;;;8.66;100.00;101075.56;4938892;29;20028;-77
2023/05/20 02:50:11;;;;;;;16.70;8.88;;;;;;;8.62;100.00;101079.13;4927189;29;20040;-77
2023/05/20 02:52:36;;;;;;;22.27;8.80;;;;;;;8.61;100.00;101078.28;4922392;29;20028;-77
2023/05/20 02:55:02;;;;;;;17.45;8.88;;;;;;;8.65;100.00;101076.63;4907188;29;20079;-77
2023/05/20 02:57:28;;;;;;;17.70;8.95;;;;;;;8.61;100.00;101074.66;4922374;29;20403;-77
2023/05/20 02:59:54;;;;;;;13.00;8.60;;;;;;;8.56;100.00;101081.00;4937738;29;20500;-77
2023/05/20 03:02:20;;;;;;;19.98;9.82;;;;;;;8.54;100.00;101077.66;4935191;29;20536;-77
2023/05/20 03:04:46;;;;;;;16.05;8.95;;;;;;;8.53;100.00;101069.66;4922815;29;20035;-77
2023/05/20 03:07:11;;;;;;;20.50;10.80;;;;;;;8.52;100.00;101074.31;4919490;29;20508;-77
2023/05/20 03:09:36;;;;;;;27.58;10.48;;;;;;;8.47;100.00;101066.84;4938305;29;20552;-77
2023/05/20 03:12:02;;;;;;;20.75;10.82;;;;;;;8.53;100.00;101058.56;4938533;29;20051;-78
2023/05/20 03:14:27;;;;;;;17.77;9.95;;;;;;;8.52;100.00;101063.25;4938010;29;20088;-77
2023/05/20 03:16:56;;;;;;;19.92;10.25;;;;;;;8.52;100.00;101062.44;4906452;29;20047;-77
2023/05/20 03:19:21;;;;;;;24.45;10.70;;;;;;;8.48;100.00;101051.06;4910239;29;20024;-78
2023/05/20 03:21:47;;;;;;;21.80;10.90;;;;;;;8.49;100.00;101058.25;4919607;29;20031;-77
2023/05/20 03:24:12;;;;;;;19.52;10.90;;;;;;;8.45;100.00;101052.44;4939336;29;20036;-77
2023/05/20 03:26:41;;;;;;;23.95;11.70;;;;;;;8.42;100.00;101046.59;4938060;29;20426;-77
2023/05/20 03:29:08;;;;;;;22.80;11.15;;;;;;;8.42;100.00;101041.88;4921762;29;20035;-77
2023/05/20 03:31:33;;;;;;;20.67;10.93;;;;;;;8.40;100.00;101043.25;4938077;29;20504;-77
2023/05/20 03:33:59;;;;;;;20.85;11.30;;;;;;;8.41;100.00;101042.16;4922110;29;20042;-77
2023/05/20 03:36:24;;;;;;;22.17;10.85;;;;;;;8.42;100.00;101041.06;4938243;29;20434;-77
2023/05/20 03:38:50;;;;;;;26.60;11.35;;;;;;;8.40;100.00;101038.53;4922070;29;20032;-77
2023/05/20 03:41:15;;;;;;;22.70;10.93;;;;;;;8.42;100.00;101041.88;4922214;29;20033;-77
2023/05/20 03:43:40;;;;;;;24.65;12.35;;;;;;;8.45;100.00;101040.53;4934493;29;20043;-77
2023/05/20 03:46:06;;;;;;;21.42;11.50;;;;;;;8.41;100.00;101034.69;4919459;29;20540;-77
2023/05/20 03:48:31;;;;;;;21.27;10.45;;;;;;;8.41;100.00;101031.06;4922126;29;20035;-77
2023/05/20 03:50:57;;;;;;;21.33;10.75;;;;;;;8.40;100.00;101032.19;4922090;29;20023;-77
2023/05/20 03:53:22;;;;;;;21.05;10.77;;;;;;;8.38;100.00;101035.16;4922595;29;20508;-77
2023/05/20 03:55:48;;;;;;;25.80;11.77;;;;;;;8.37;100.00;101032.69;4918512;29;20047;-77
2023/05/20 03:58:14;;;;;;;22.80;10.82;;;;;;;8.36;100.00;101026.31;4934447;29;20390;-77
2023/05/20 04:00:40;;;;;;;22.52;11.40;;;;;;;8.33;100.00;101026.00;4921983;29;20043;-77
2023/05/20 04:03:05;;;;;;;24.83;11.65;;;;;;;8.32;100.00;101032.66;4925066;29;20043;-77
2023/05/20 04:05:31;;;;;;;19.48;11.90;;;;;;;8.31;100.00;101028.22;4922080;29;20053;-77
2023/05/20 04:07:56;;;;;;;24.77;11.45;;;;;;;8.27;100.00;101028.75;4937517;29;20063;-77
2023/05/20 04:10:22;;;;;;;22.23;11.95;;;;;;;8.29;100.00;101029.31;4921996;29;20042;-77
2023/05/20 04:12:48;;;;;;;23.42;12.23;;;;;;;8.30;100.00;101027.38;4924813;29;20043;-77
2023/05/20 04:15:13;;;;;;;23.13;12.27;;;;;;;8.25;100.00;101028.19;4936233;29;20107;-77
2023/05/20 04:17:39;;;;;;;21.73;11.93;;;;;;;8.25;100.00;101028.19;4925515;29;20027;-77
2023/05/20 04:20:06;;;;;;;19.98;12.07;;;;;;;8.23;100.00;101032.31;4922836;29;20032;-77
2023/05/20 04:22:32;;;;;;;21.70;11.20;;;;;;;8.21;100.00;101035.34;4941365;29;20027;-77
2023/05/20 04:24:58;;;;;;;24.85;12.77;;;;;;;8.22;100.00;101031.50;4942450;29;20042;-77
2023/05/20 04:27:24;;;;;;;26.58;13.13;;;;;;;8.23;100.00;101033.13;4925453;29;20047;-77
2023/05/20 04:29:51;;;;;;;21.92;11.68;;;;;;;8.22;100.00;101037.03;4925308;29;20028;-77
2023/05/20 04:32:17;;;;;;;24.55;12.40;;;;;;;8.21;100.00;101035.34;4941101;29;20091;-77
2023/05/20 04:34:44;;;;;;;27.60;12.10;;;;;;;8.22;100.00;101036.19;4909491;29;20035;-77
2023/05/20 04:37:10;;;;;;;23.80;12.45;;;;;;;8.20;100.00;101025.38;4925464;29;20038;-77
2023/05/20 04:39:35;;;;;;;23.98;11.55;;;;;;;8.18;100.00;101027.56;4921813;29;20088;-77
2023/05/20 04:42:02;;;;;;;25.52;13.38;;;;;;;8.20;100.00;101032.84;4922030;29;20388;-77
2023/05/20 04:44:28;;;;;;;27.98;13.68;;;;;;;8.16;100.00;101034.47;4918652;29;20034;-77
2023/05/20 04:46:55;;;;;;;24.92;12.35;;;;;;;8.17;100.00;101028.69;4940762;29;20037;-77
2023/05/20 04:49:20;;;;;;;26.05;13.02;;;;;;;8.17;100.00;101025.91;4937794;29;20425;-77
2023/05/20 04:51:48;;;;;;;27.33;13.07;;;;;;;8.18;100.00;101026.75;4924614;29;20070;-76
2023/05/20 04:54:16;;;;;;;21.52;12.05;;;;;;;8.16;100.00;101026.16;4941883;29;20480;-77
2023/05/20 04:56:42;;;;;;;23.27;12.70;;;;;;;8.21;100.00;101020.66;4925036;29;20048;-77
2023/05/20 04:59:09;;;;;;;26.40;12.63;;;;;;;8.20;100.00;101028.13;4941665;29;20111;-77
2023/05/20 05:01:35;;;;;;;24.38;12.52;;;;;;;8.18;100.00;101012.91;4924792;29;20095;-77
2023/05/20 05:04:01;;;;;;;22.17;11.20;;;;;;;8.18;100.00;101013.72;4924783;29;20032;-77
2023/05/20 05:06:26;;;;;;;20.13;11.73;;;;;;;8.20;100.00;101017.06;4937464;29;20043;-77
2023/05/20 05:08:52;;;;;;;21.58;11.90;;;;;;;8.22;100.00;101020.41;4924647;29;20034;-77
2023/05/20 05:11:17;;;;;;;22.90;11.63;;;;;;;8.23;100.00;101024.84;4921426;29;20032;-77
2023/05/20 05:13:43;;;;;;;22.92;11.40;;;;;;;8.22;100.00;101017.66;4940510;29;20055;-77
2023/05/20 05:16:08;;;;;;;24.30;11.05;;;;;;;8.25;100.00;101019.06;4924367;29;20043;-77
2023/05/20 05:18:34;;;;;;;24.48;10.93;;;;;;;8.27;100.00;101017.69;4941470;29;20023;-77
2023/05/20 05:21:03;;;;;;;20.13;10.95;;;;;;;8.27;100.00;101016.84;4924590;29;20075;-77
2023/05/20 05:23:29;;;;;;;21.08;11.48;;;;;;;8.28;100.00;101016.56;4939444;29;20159;-77
2023/05/20 05:25:54;;;;;;;19.70;11.15;;;;;;;8.33;100.00;101026.00;4940525;29;20044;-77
2023/05/20 05:28:20;;;;;;;18.80;10.93;;;;;;;8.35;100.00;101018.28;4923990;29;20532;-77
2023/05/20 05:30:45;;;;;;;25.17;10.77;;;;;;;8.40;100.00;101019.16;4924191;29;20594;-77
2023/05/20 05:33:12;;;;;;;23.02;10.75;;;;;;;8.47;100.00;101016.19;4914892;29;20040;-77
2023/05/20 05:35:38;;;;;;;27.75;12.40;;;;;;;8.51;100.00;101020.06;4941180;29;20036;-77
2023/05/20 05:38:03;;;;;;;25.90;11.27;;;;;;;8.59;100.00;101008.50;4921239;29;20079;-77
2023/05/20 05:40:29;;;;;;;21.13;10.98;;;;;;;8.65;100.00;101010.19;4939885;29;20043;-77
2023/05/20 05:42:54;;;;;;;22.02;10.70;;;;;;;8.71;100.00;101006.31;4940752;29;20032;-77
2023/05/20 05:45:19;;;;;;;25.33;11.48;;;;;;;8.80;100.00;101008.59;4938364;29;20039;-77
2023/05/20 05:47:45;;;;;;;24.23;12.88;;;;;;;8.88;100.00;101013.59;4908175;29;20032;-77
2023/05/20 05:50:10;;;;;;;23.02;12.30;;;;;;;8.95;100.00;101005.88;4940871;29;20385;-77
2023/05/20 05:52:36;;;;;;;27.10;13.32;;;;;;;9.06;100.00;101013.13;4923586;29;20059;-77
2023/05/20 05:55:01;;;;;;;31.02;12.82;;;;;;;9.15;100.00;101008.72;4940905;29;20050;-77
2023/05/20 05:57:27;;;;;;;21.92;11.25;;;;;;;9.26;100.00;101006.00;4920403;29;20446;-77
2023/05/20 05:59:52;;;;;;;29.70;13.32;;;;;;;9.37;100.00;101002.13;4920468;29;20437;-77
2023/05/20 06:02:18;;;;;;;27.98;13.20;;;;;;;9.51;100.00;101010.75;4939429;29;20032;-77
2023/05/20 06:04:43;;;;;;;31.17;13.60;;;;;;;9.65;100.00;101016.59;4923586;29;20075;-77
2023/05/20 06:07:09;;;;;;;26.88;11.88;;;;;;;9.78;100.00;101010.50;4936480;29;20490;-77
2023/05/20 06:09:34;;;;;;;25.95;12.95;;;;;;;9.93;100.00;101004.13;4936404;29;20056;-77
2023/05/20 06:12:01;;;;;;;19.70;12.13;;;;;;;10.12;100.00;101004.41;4922881;29;20032;-77
2023/05/20 06:14:26;;;;;;;24.20;10.98;;;;;;;10.30;100.00;101001.06;4923197;29;20035;-77
2023/05/20 06:16:52;;;;;;;26.65;12.20;;;;;;;10.50;100.00;101009.38;4917449;29;20074;-76
2023/05/20 06:19:17;;;;;;;33.03;14.65;;;;;;;10.68;100.00;100990.41;4923306;29;20028;-75
2023/05/20 06:21:43;;;;;;;25.23;11.80;;;;;;;10.86;100.00;100989.78;4907172;29;20027;-75
2023/05/20 06:24:08;;;;;;;39.17;15.85;;;;;;;11.06;100.00;100983.31;4940188;29;20042;-73
2023/05/20 06:26:34;;;;;;;24.58;13.55;;;;;;;11.23;100.00;100984.88;4940161;29;20035;-77
2023/05/20 06:28:59;;;;;;;28.98;13.50;;;;;;;11.39;100.00;100973.41;4923103;29;20038;-78
2023/05/20 06:31:25;;;;;;;31.75;13.77;;;;;;;11.58;100.00;100978.25;4939170;28;20408;-77
2023/05/20 06:33:50;;;;;;;31.65;13.13;;;;;;;11.68;100.00;100986.53;4939104;29;20038;-78
2023/05/20 06:36:16;;;;;;;33.15;14.88;;;;;;;11.78;100.00;100983.69;4923206;29;20039;-78
2023/05/20 06:38:41;;;;;;;25.00;13.15;;;;;;;11.95;100.00;100988.00;4922960;29;20027;-78
2023/05/20 06:41:07;;;;;;;30.92;14.43;;;;;;;12.02;100.00;100971.81;4907601;29;20020;-77
2023/05/20 06:43:33;;;;;;;29.95;14.55;;;;;;;12.12;100.00;100979.22;4935441;29;20032;-77
2023/05/20 06:45:58;;;;;;;32.95;15.82;;;;;;;12.22;100.00;100981.91;4923182;29;20054;-78
2023/05/20 06:48:24;;;;;;;30.38;13.70;;;;;;;12.30;100.00;100987.66;4939873;29;20043;-77
2023/05/20 06:50:49;;;;;;;26.13;12.57;;;;;;;12.42;100.00;100980.88;4938564;29;20537;-77
2023/05/20 06:53:15;;;;;;;29.73;13.48;;;;;;;12.52;100.00;100975.19;4906098;29;20472;-77
2023/05/20 06:55:41;;;;;;;32.08;16.13;;;;;;;12.55;100.00;100973.78;4935293;29;20557;-77
2023/05/20 06:58:06;;;;;;;32.17;15.27;;;;;;;12.52;100.00;100977.97;4919471;29;20059;-78
2023/05/20 07:00:32;;;;;;;34.28;16.67;;;;;;;12.55;100.00;100968.19;4922843;29;20384;-78
2023/05/20 07:02:57;;;;;;;31.88;15.63;;;;;;;12.64;100.00;100977.56;4938559;29;20039;-78
2023/05/20 07:05:23;;;;;;;36.28;15.38;;;;;;;12.66;100.00;100969.75;4922608;29;20058;-77
2023/05/20 07:07:49;;;;;;;29.23;14.90;;;;;;;12.65;100.00;100980.06;4906788;29;20028;-78
2023/05/20 07:10:14;;;;;;;29.85;14.27;;;;;;;12.72;100.00;100974.94;4935172;29;20121;-78
2023/05/20 07:12:40;;;;;;;30.20;14.85;;;;;;;12.77;100.00;100976.03;4919201;29;20039;-78
2023/05/20 07:15:06;;;;;;;30.70;14.15;;;;;;;12.74;100.00;100969.09;4922591;29;20086;-77
2023/05/20 07:17:31;;;;;;;26.42;13.10;;;;;;;12.77;100.00;100967.66;4922501;29;20036;-78
2023/05/20 07:19:57;;;;;;;27.77;14.25;;;;;;;12.77;100.00;100967.66;4939385;29;20122;-77
2023/05/20 07:22:22;;;;;;;25.70;13.88;;;;;;;12.80;100.00;100964.28;4934943;29;20068;-77
2023/05/20 07:24:48;;;;;;;34.08;15.25;;;;;;;12.81;100.00;100971.50;4922476;29;20031;-78
2023/05/20 07:27:13;;;;;;;26.08;14.25;;;;;;;12.91;100.00;100965.81;4938764;29;20035;-78
2023/05/20 07:29:38;;;;;;;31.13;14.57;;;;;;;13.00;100.00;100969.59;4922323;29;20043;-77
2023/05/20 07:32:04;;;;;;;27.15;12.13;;;;;;;13.13;100.00;100971.63;4922316;29;20042;-78
2023/05/20 07:34:30;;;;;;;31.23;12.10;;;;;;;13.29;100.00;100972.28;4919036;29;20393;-78
2023/05/20 07:36:56;;;;;;;26.40;12.43;;;;;;;13.41;100.00;100966.25;4940775;29;20019;-78
2023/05/20 07:39:22;;;;;;;30.80;13.18;;;;;;;13.54;100.00;100968.28;4921615;29;20126;-78
2023/05/20 07:41:48;;;;;;;22.77;11.80;;;;;;;13.75;100.00;100963.19;4922082;29;20036;-78
2023/05/20 07:44:13;;;;;;;30.65;13.30;;;;;;;13.95;100.00;100961.19;4922059;29;20036;-78
2023/05/20 07:46:40;;;;;;;29.58;13.43;;;;;;;14.16;100.00;100958.88;4934029;29;20032;-78
2023/05/20 07:49:06;;;;;;;26.10;12.52;;;;;;;14.34;100.00;100952.38;4922131;29;20027;-78
2023/05/20 07:51:32;;;;;;;28.92;13.00;;;;;;;14.55;100.00;100949.22;4921872;29;20515;-78
2023/05/20 07:53:57;;;;;;;22.95;11.77;;;;;;;14.77;100.00;100943.72;4929982;29;20036;-78
2023/05/20 07:56:23;;;;;;;25.52;11.45;;;;;;;14.98;100.00;100942.13;4937644;29;20044;-78
2023/05/20 07:58:53;;;;;;;27.63;12.43;;;;;;;15.15;100.00;100941.47;4937579;29;20034;-79
2023/05/20 08:01:19;;;;;;;29.20;9.45;;;;;;;15.40;100.00;100940.06;4937746;29;20038;-78
2023/05/20 08:03:45;;;;;;;28.30;11.60;;;;;;;15.54;100.00;100939.19;4939161;29;20477;-78
2023/05/20 08:06:10;;;;;;;26.27;11.05;;;;;;;15.75;100.00;100934.78;4937523;29;20087;-78
2023/05/20 08:08:36;;;;;;;27.70;11.32;;;;;;;15.90;100.00;100944.75;4938958;29;20433;-78
2023/05/20 08:11:02;;;;;;;23.60;10.02;;;;;;;16.02;100.00;100933.81;4921886;29;20032;-79
2023/05/20 08:13:28;;;;;;;25.90;10.25;;;;;;;16.10;100.00;100929.38;4921564;29;20091;-79
2023/05/20 08:15:53;;;;;;;19.95;9.02;;;;;;;16.22;100.00;100931.59;4890425;29;20028;-78
2023/05/20 08:18:19;;;;;;;24.48;10.38;;;;;;;16.14;100.00;100938.00;4921894;29;20028;-78
2023/05/20 08:20:44;;;;;;;23.05;9.98;;;;;;;16.22;100.00;100940.00;4937455;28;20032;-79
2023/05/20 08:23:10;;;;;;;22.00;9.82;;;;;;;16.15;100.00;100932.03;4918437;29;20043;-78
2023/05/20 08:25:37;;;;;;;27.90;10.82;;;;;;;16.27;100.00;100937.91;4934203;29;20032;-79
2023/05/20 08:28:04;;;;;;;23.05;10.52;;;;;;;16.27;100.00;100939.88;4905622;29;20034;-79
2023/05/20 08:30:29;;;;;;;25.15;11.07;;;;;;;16.27;100.00;100931.47;4923864;29;20040;-79
2023/05/20 08:32:55;;;;;;;28.25;11.43;;;;;;;16.26;100.00;100933.41;4937529;29;20543;-79
2023/05/20 08:35:22;;;;;;;23.65;10.00;;;;;;;16.31;100.00;100930.47;4937497;29;20039;-79
2023/05/20 08:37:47;;;;;;;22.67;9.55;;;;;;;16.30;100.00;100923.22;4918476;29;20035;-79
2023/05/20 08:40:13;;;;;;;23.38;10.57;;;;;;;16.40;100.00;100933.31;4919641;29;20028;-79
2023/05/20 08:42:42;;;;;;;22.42;10.27;;;;;;;16.44;100.00;100933.53;4905481;29;20428;-79
2023/05/20 08:45:12;;;;;;;21.20;8.82;;;;;;;16.54;100.00;100934.03;4937254;29;20028;-79
2023/05/20 08:47:38;;;;;;;23.52;9.73;;;;;;;16.53;100.00;100934.38;4918411;29;20036;-79
2023/05/20 08:50:04;;;;;;;19.98;8.60;;;;;;;16.66;100.00;100936.25;4934912;29;20092;-79
2023/05/20 08:52:29;;;;;;;21.35;9.35;;;;;;;16.74;100.00;100931.78;4922265;29;20036;-78
2023/05/20 08:54:55;;;;;;;22.08;9.68;;;;;;;16.82;100.00;100930.19;4905704;29;20039;-78
2023/05/20 08:57:21;;;;;;;25.65;10.48;;;;;;;16.89;100.00;100927.75;4905537;29;20054;-79
2023/05/20 08:59:46;;;;;;;22.67;9.48;;;;;;;16.97;100.00;100921.34;4941058;29;20027;-79
2023/05/20 09:02:12;;;;;;;23.58;9.82;;;;;;;17.08;100.00;100922.66;4921818;29;20047;-79
2023/05/20 09:04:37;;;;;;;24.40;10.02;;;;;;;17.19;100.00;100909.16;4940525;29;20084;-79
2023/05/20 09:07:03;;;;;;;21.10;8.32;;;;;;;17.31;100.00;100911.31;4940529;29;20028;-79
2023/05/20 09:09:29;;;;;;;25.52;9.68;;;;;;;17.41;100.00;100913.75;4940447;29;20468;-79
2023/05/20 09:11:55;;;;;;;23.40;8.73;;;;;;;17.52;100.00;100905.81;4924698;29;20039;-79
2023/05/20 09:14:20;;;;;;;20.67;8.40;;;;;;;17.51;100.00;100910.63;4940185;29;20087;-79
2023/05/20 09:16:50;;;;;;;13.90;7.50;;;;;;;17.55;100.00;100911.63;4940596;29;20173;-79
2023/05/20 09:19:15;;;;;;;21.95;8.38;;;;;;;17.68;100.00;100903.34;4927877;29;20027;-79
2023/05/20 09:21:41;;;;;;;19.63;7.30;;;;;;;17.78;100.00;100900.19;4924638;29;20032;-79
2023/05/20 09:24:07;;;;;;;16.23;8.27;;;;;;;17.83;100.00;100905.69;4921532;29;20024;-79
2023/05/20 09:26:32;;;;;;;20.98;7.70;;;;;;;17.94;100.00;100906.13;4924314;29;20040;-79
2023/05/20 09:28:58;;;;;;;20.90;7.25;;;;;;;18.05;100.00;100901.78;4940151;29;20149;-79
2023/05/20 09:31:26;;;;;;;13.57;6.95;;;;;;;18.19;99.77;100898.78;4924016;29;20028;-79
2023/05/20 09:33:52;;;;;;;20.42;7.57;;;;;;;18.27;100.00;100892.28;4940140;29;20045;-79
2023/05/20 09:36:17;;;;;;;18.52;7.85;;;;;;;18.42;100.00;100894.56;4924497;29;20036;-79
2023/05/20 09:38:43;;;;;;;21.23;7.30;;;;;;;18.54;100.00;100897.47;4940193;29;20028;-80
2023/05/20 09:41:12;;;;;;;16.05;6.95;;;;;;;18.66;100.00;100899.53;4921057;29;20043;-79
2023/05/20 09:43:41;;;;;;;21.20;7.00;;;;;;;18.80;96.47;100885.28;4920753;29;20453;-78
2023/05/20 09:46:07;;;;;;;16.90;6.60;;;;;;;18.91;99.90;100889.34;4917928;29;20028;-79
2023/05/20 09:48:35;;;;;;;15.85;6.22;;;;;;;19.04;97.07;100880.97;4924270;29;20733;-79
2023/05/20 09:51:01;;;;;;;18.42;6.45;;;;;;;19.15;93.52;100890.66;4921214;29;20493;-79
2023/05/20 09:53:27;;;;;;;15.43;6.57;;;;;;;19.23;92.21;100884.16;4923615;29;20032;-80
2023/05/20 09:55:53;;;;;;;15.23;6.45;;;;;;;19.29;88.84;100876.31;4921217;29;20414;-79
2023/05/20 09:58:19;;;;;;;16.88;6.60;;;;;;;19.39;94.37;100870.28;4920370;29;20508;-79
2023/05/20 10:00:45;;;;;;;13.68;5.75;;;;;;;19.57;94.18;100876.56;4934386;29;20043;-79
2023/05/20 10:03:11;;;;;;;20.48;6.90;;;;;;;19.64;85.90;100874.00;4920504;29;20068;-80
2023/05/20 10:05:40;;;;;;;15.70;6.43;;;;;;;19.73;84.49;100871.94;4903002;29;20044;-79
2023/05/20 10:08:05;;;;;;;14.52;5.80;;;;;;;19.81;84.32;100876.69;4939461;29;20035;-79
2023/05/20 10:10:53;;;;;;;18.35;6.50;;;;;;;19.95;85.44;100858.63;4937320;29;20123;-79
2023/05/20 10:13:43;;;;;;;16.08;6.10;;;;;;;19.96;85.33;100865.91;4919956;29;20063;-79
2023/05/20 10:16:12;;;;;;;13.65;5.68;;;;;;;20.07;86.64;100847.34;4939304;29;20118;-80
2023/05/20 10:19:17;;;;;;;18.92;6.38;;;;;;;20.18;84.61;100845.72;4937913;29;20160;-79
2023/05/20 10:21:43;;;;;;;16.02;6.10;;;;;;;20.25;78.33;100845.13;4915155;29;20046;-79
2023/05/20 10:24:09;;;;;;;18.20;6.40;;;;;;;20.31;78.48;100844.56;4907947;29;20032;-79
2023/05/20 10:26:40;;;;;;;15.93;6.63;;;;;;;20.33;78.77;100847.03;4938975;29;20034;-79
2023/05/20 10:29:18;;;;;;;15.40;6.10;;;;;;;20.47;78.25;100852.31;4923120;29;20032;-80
2023/05/20 10:31:47;;;;;;;16.38;6.03;;;;;;;20.50;73.39;100851.59;4920892;29;20040;-80
2023/05/20 10:34:17;;;;;;;15.00;6.30;;;;;;;20.56;76.28;100861.53;4935498;29;20040;-80
2023/05/20 10:36:52;;;;;;;15.00;5.50;;;;;;;20.66;77.15;100857.38;4938916;29;20031;-80
2023/05/20 10:39:18;;;;;;;15.05;6.13;;;;;;;20.78;78.16;100854.53;4939251;29;20031;-79
2023/05/20 10:41:43;;;;;;;16.52;6.30;;;;;;;20.71;71.98;100851.50;4923072;29;20024;-80
2023/05/20 10:44:09;;;;;;;17.23;6.75;;;;;;;20.77;73.84;100854.91;4922790;29;20028;-80
2023/05/20 10:46:34;;;;;;;15.85;6.03;;;;;;;20.85;74.90;100843.50;4938852;29;20036;-80
2023/05/20 10:49:03;;;;;;;16.90;5.72;;;;;;;21.02;75.28;100839.56;4922837;29;20054;-79
2023/05/20 10:51:30;;;;;;;11.82;6.30;;;;;;;20.93;70.34;100842.53;4938373;29;20031;-80
2023/05/20 10:53:56;;;;;;;16.00;6.15;;;;;;;20.90;66.08;100848.88;4939372;29;20481;-80
2023/05/20 10:56:24;;;;;;;13.82;5.70;;;;;;;20.76;64.77;100831.53;4939555;29;20119;-80
2023/05/20 10:58:50;;;;;;;13.88;5.90;;;;;;;20.84;67.38;100829.72;4919390;29;20067;-79
2023/05/20 11:01:17;;;;;;;16.85;6.60;;;;;;;20.89;67.50;100829.47;4918012;29;20044;-79
2023/05/20 11:03:43;;;;;;;18.42;6.43;;;;;;;20.99;68.48;100823.34;4922933;29;20573;-79
2023/05/20 11:06:13;;;;;;;16.90;5.78;;;;;;;21.09;66.79;100834.16;4922556;29;20046;-79